Time;durP1;ratioP1;P1;durP2;ratioP2;P2;SDS_P1;SDS_P2;PMS_P1;PMS_P2;Temp;Humidity;BMP_temperature;BMP_pressure;BME280_temperature;BME280_humidity;BME280_pressure;Samples;Min_cycle;Max_cycle;Signal;HPM_P1;HPM_P2
2023/03/05 00:14:30;;;;;;;7.10;3.63;;;4.30;99.90;;;;;;6221024;22;20274;-86
2023/03/05 00:32:35;;;;;;;61.13;58.43;;;4.00;99.90;;;;;;6190626;23;21065;-86
2023/03/05 01:01:13;;;;;;;58.40;55.40;;;3.70;99.90;;;;;;6189637;23;20494;-86
2023/03/05 07:06:19;;;;;;;14.60;5.83;;;3.90;99.90;;;;;;6183344;23;20796;-81
2023/03/05 07:08:50;;;;;;;11.47;5.00;;;3.80;99.90;;;;;;6154954;23;20479;-82
2023/03/05 07:11:21;;;;;;;9.57;5.37;;;3.90;99.90;;;;;;6156066;23;20417;-82
2023/03/05 07:14:03;;;;;;;12.90;4.70;;;3.90;99.90;;;;;;6192976;23;20870;-82
2023/03/05 07:16:34;;;;;;;12.33;4.73;;;4.10;99.90;;;;;;6152512;23;20492;-83
2023/03/05 07:19:10;;;;;;;14.93;5.23;;;4.10;99.90;;;;;;6152575;23;20413;-82
2023/03/05 07:21:39;;;;;;;13.20;4.97;;;4.00;99.90;;;;;;6128863;23;20464;-83
2023/03/05 07:27:01;;;;;;;17.93;5.10;;;4.00;99.90;;;;;;6151370;23;20418;-83
2023/03/05 07:43:27;;;;;;;7.43;5.43;;;4.20;99.90;;;;;;6181725;23;20480;-82
2023/03/05 07:45:54;;;;;;;13.13;6.17;;;4.20;99.90;;;;;;6191550;23;20525;-85
2023/03/05 07:48:25;;;;;;;19.70;7.77;;;4.20;99.90;;;;;;6192730;23;20436;-84
2023/03/05 07:58:45;;;;;;;10.93;5.87;;;4.40;99.90;;;;;;6182893;23;20912;-88
2023/03/05 08:14:31;;;;;;;12.20;4.53;;;4.60;99.90;;;;;;6122965;22;1456580;-82
2023/03/05 08:16:58;;;;;;;12.87;5.40;;;4.80;99.90;;;;;;6159602;23;20499;-81
2023/03/05 08:19:24;;;;;;;12.33;6.50;;;4.70;99.90;;;;;;6170841;23;20436;-81
2023/03/05 08:21:52;;;;;;;16.33;6.10;;;4.90;99.90;;;;;;6161463;23;20965;-82
2023/03/05 08:24:21;;;;;;;10.60;5.20;;;5.00;99.90;;;;;;6160927;23;20433;-82
2023/03/05 08:26:48;;;;;;;23.83;6.23;;;4.90;99.90;;;;;;6160051;23;20417;-83
2023/03/05 08:29:18;;;;;;;11.07;5.10;;;5.00;99.90;;;;;;6160396;23;20460;-82
2023/03/05 08:31:55;;;;;;;13.03;5.23;;;5.10;99.90;;;;;;6160803;23;20420;-82
2023/03/05 08:34:24;;;;;;;11.50;5.13;;;5.20;99.90;;;;;;6160993;23;20473;-81
2023/03/05 08:36:51;;;;;;;13.77;5.17;;;5.10;99.90;;;;;;6161355;23;20417;-81
2023/03/05 08:39:20;;;;;;;12.53;4.97;;;5.30;99.90;;;;;;6160747;23;20417;-82
2023/03/05 08:41:48;;;;;;;15.10;6.10;;;5.50;99.90;;;;;;6170468;23;20503;-82
2023/03/05 08:44:15;;;;;;;17.63;5.80;;;5.50;99.90;;;;;;6160408;23;20433;-82
2023/03/05 08:46:47;;;;;;;11.87;5.23;;;5.50;99.90;;;;;;6161526;23;20439;-82
2023/03/05 08:49:14;;;;;;;12.47;5.70;;;5.80;99.90;;;;;;6161019;23;20480;-81
2023/03/05 08:51:41;;;;;;;19.63;6.30;;;5.90;99.90;;;;;;6170941;23;20424;-81
2023/03/05 08:54:10;;;;;;;9.13;4.70;;;6.00;99.90;;;;;;6170626;23;20472;-79
2023/03/05 08:56:38;;;;;;;12.90;6.07;;;6.10;99.90;;;;;;6160757;23;20417;-79
2023/03/05 08:59:07;;;;;;;21.87;7.20;;;6.30;99.90;;;;;;6158949;23;20424;-83
2023/03/05 09:01:37;;;;;;;14.70;5.40;;;6.30;99.90;;;;;;6161199;23;20413;-81
2023/03/05 09:04:05;;;;;;;13.20;6.47;;;6.30;99.90;;;;;;6161030;23;20766;-81
2023/03/05 09:06:33;;;;;;;17.30;5.50;;;6.50;99.90;;;;;;6160587;23;20445;-84
2023/03/05 09:09:00;;;;;;;17.10;6.83;;;6.50;99.90;;;;;;6159400;23;20413;-84
2023/03/05 09:11:27;;;;;;;7.50;4.70;;;6.80;99.90;;;;;;6160362;23;20420;-87
2023/03/05 09:13:57;;;;;;;12.33;4.93;;;7.10;99.90;;;;;;6167405;23;20426;-86
2023/03/05 09:16:24;;;;;;;11.37;5.33;;;7.30;99.90;;;;;;6162346;23;20489;-83
2023/03/05 09:18:51;;;;;;;10.80;5.80;;;7.30;99.90;;;;;;6164044;23;20751;-83
2023/03/05 09:21:20;;;;;;;10.60;5.77;;;7.10;99.90;;;;;;6163829;23;20417;-83
2023/03/05 09:23:47;;;;;;;15.73;7.10;;;6.80;99.90;;;;;;6163042;23;20430;-85
2023/03/05 09:26:17;;;;;;;16.00;7.87;;;6.80;99.90;;;;;;6164369;23;20743;-84
2023/03/05 09:28:49;;;;;;;13.37;8.13;;;6.50;99.90;;;;;;6162366;23;20417;-84
2023/03/05 09:31:16;;;;;;;16.63;9.30;;;6.30;99.90;;;;;;6163964;23;20423;-83
2023/03/05 09:33:50;;;;;;;16.03;9.40;;;6.20;99.90;;;;;;6163082;23;20480;-83
2023/03/05 09:39:05;;;;;;;9.40;5.03;;;5.90;99.90;;;;;;6120302;23;20450;-86
2023/03/05 09:46:56;;;;;;;13.87;9.17;;;5.40;99.90;;;;;;6144869;23;20495;-81
2023/03/05 09:49:33;;;;;;;11.30;8.27;;;5.50;99.90;;;;;;6152513;23;20489;-82
2023/03/05 10:02:19;;;;;;;17.40;12.17;;;5.60;99.90;;;;;;6129448;23;20453;-80
2023/03/05 10:04:52;;;;;;;15.43;10.50;;;5.30;99.90;;;;;;6135154;23;20776;-81
2023/03/05 10:07:26;;;;;;;19.63;10.60;;;5.30;99.90;;;;;;6152439;23;20429;-82
2023/03/05 10:10:05;;;;;;;14.37;10.73;;;5.00;99.90;;;;;;6162650;23;20445;-81
2023/03/05 10:12:56;;;;;;;14.40;9.87;;;5.30;99.90;;;;;;6153322;23;20398;-81
2023/03/05 10:15:35;;;;;;;15.30;9.13;;;5.10;99.90;;;;;;6162217;23;20462;-82
2023/03/05 10:18:23;;;;;;;12.77;8.83;;;5.30;99.90;;;;;;6163995;23;20472;-81
2023/03/05 10:21:01;;;;;;;22.00;9.30;;;5.40;99.90;;;;;;6164407;23;20409;-81
2023/03/05 10:24:04;;;;;;;12.60;8.33;;;5.40;99.90;;;;;;6164491;23;20426;-84
2023/03/05 10:26:58;;;;;;;13.83;7.77;;;5.40;99.90;;;;;;6163639;23;20417;-81
2023/03/05 10:30:01;;;;;;;20.97;10.43;;;5.30;99.90;;;;;;6163159;23;20482;-80
2023/03/05 10:32:39;;;;;;;14.70;9.30;;;5.20;99.90;;;;;;6163540;23;20956;-81
2023/03/05 10:35:33;;;;;;;21.33;8.80;;;5.30;99.90;;;;;;6163285;23;21032;-81
2023/03/05 10:38:19;;;;;;;13.07;8.30;;;5.40;99.90;;;;;;6163078;23;20414;-81
2023/03/05 10:59:31;;;;;;;14.07;8.30;;;5.70;99.90;;;;;;6123525;23;20422;-85
2023/03/05 11:02:10;;;;;;;15.77;9.37;;;5.40;99.90;;;;;;6134689;23;20919;-84
2023/03/05 11:04:41;;;;;;;11.43;8.40;;;5.20;99.90;;;;;;6134541;23;20451;-84
2023/03/05 11:07:35;;;;;;;13.50;8.97;;;5.00;99.90;;;;;;6135857;23;20891;-84
2023/03/05 11:10:26;;;;;;;17.37;15.37;;;4.90;99.90;;;;;;6134139;23;20481;-83
2023/03/05 11:52:02;;;;;;;7.03;5.10;;;5.60;99.90;;;;;;6118811;23;20508;-82
2023/03/05 11:59:47;;;;;;;11.87;6.23;;;5.50;99.90;;;;;;6138246;23;20450;-84
2023/03/05 12:07:50;;;;;;;8.67;6.30;;;5.70;99.90;;;;;;6121946;23;20427;-83
2023/03/05 12:10:30;;;;;;;10.60;7.33;;;5.90;99.90;;;;;;6132838;23;20399;-84
2023/03/05 12:21:26;;;;;;;9.23;4.77;;;6.30;99.90;;;;;;6116161;23;20933;-85
2023/03/05 12:24:00;;;;;;;6.97;5.20;;;6.40;99.90;;;;;;6123973;23;20442;-86
2023/03/05 12:26:58;;;;;;;9.03;4.60;;;6.30;99.90;;;;;;6163457;23;20414;-86
2023/03/05 12:29:31;;;;;;;11.13;5.03;;;6.30;99.90;;;;;;6163086;23;20410;-87
2023/03/05 12:31:58;;;;;;;7.30;4.43;;;6.20;99.90;;;;;;6163757;23;20413;-86
2023/03/05 12:35:08;;;;;;;7.70;4.50;;;6.30;99.90;;;;;;6154113;23;20440;-86
2023/03/05 12:38:09;;;;;;;12.60;4.80;;;6.20;99.90;;;;;;6125282;23;20798;-86
2023/03/05 12:41:19;;;;;;;9.60;4.83;;;6.30;99.90;;;;;;6116508;23;20495;-86
2023/03/05 12:44:18;;;;;;;7.10;4.43;;;6.20;99.90;;;;;;6163706;23;20441;-86
2023/03/05 12:47:06;;;;;;;8.53;4.63;;;6.40;99.90;;;;;;6164175;23;20409;-86
2023/03/05 12:49:39;;;;;;;8.40;4.30;;;6.10;99.90;;;;;;6164111;23;20425;-86
2023/03/05 12:52:24;;;;;;;7.67;4.83;;;6.10;99.90;;;;;;6165402;23;20934;-86
2023/03/05 12:55:23;;;;;;;8.40;4.73;;;6.10;99.90;;;;;;6165026;23;20488;-86
2023/03/05 12:57:58;;;;;;;6.07;3.40;;;6.10;99.90;;;;;;6165473;23;20421;-86
2023/03/05 13:00:32;;;;;;;6.50;4.30;;;6.00;99.90;;;;;;6165221;23;20474;-86
2023/03/05 13:03:20;;;;;;;7.63;4.90;;;6.10;99.90;;;;;;6166134;23;20421;-86
2023/03/05 13:05:57;;;;;;;6.67;4.37;;;6.30;99.90;;;;;;6165430;23;20453;-86
2023/03/05 13:08:26;;;;;;;11.00;4.43;;;6.40;99.90;;;;;;6165457;23;20436;-87
2023/03/05 13:10:55;;;;;;;10.67;5.20;;;6.50;99.90;;;;;;6165271;23;20441;-86
2023/03/05 13:13:24;;;;;;;9.03;5.67;;;6.80;99.90;;;;;;6165541;23;20410;-86
2023/03/05 13:18:36;;;;;;;7.40;4.90;;;6.80;99.90;;;;;;6129249;23;20446;-86
2023/03/05 13:21:16;;;;;;;9.00;5.47;;;6.90;99.90;;;;;;6095183;23;20410;-86
2023/03/05 13:23:56;;;;;;;6.27;4.43;;;7.00;99.90;;;;;;6126198;23;20505;-86
2023/03/05 13:26:24;;;;;;;7.73;5.13;;;7.00;99.90;;;;;;6106135;23;20407;-86
2023/03/05 13:29:08;;;;;;;8.47;4.50;;;7.20;99.90;;;;;;6106158;23;20414;-86
2023/03/05 13:31:38;;;;;;;8.37;4.50;;;7.20;99.90;;;;;;6106304;23;20435;-86
2023/03/05 13:34:16;;;;;;;10.90;5.97;;;7.10;99.90;;;;;;6106210;23;20442;-86
2023/03/05 13:39:31;;;;;;;8.37;5.60;;;6.90;99.90;;;;;;6125541;23;20434;-86
2023/03/05 13:42:14;;;;;;;13.77;7.10;;;6.50;99.90;;;;;;6125538;23;20399;-86
2023/03/05 13:44:42;;;;;;;11.20;7.23;;;6.50;99.90;;;;;;6135473;23;20450;-85
2023/03/05 13:47:20;;;;;;;11.10;7.03;;;6.50;99.90;;;;;;6165675;23;20497;-86
2023/03/05 13:49:55;;;;;;;12.10;7.00;;;6.30;99.90;;;;;;6164591;23;20795;-85
2023/03/05 13:52:32;;;;;;;11.10;6.43;;;6.20;99.90;;;;;;6165258;23;20954;-85
2023/03/05 13:55:00;;;;;;;8.97;5.57;;;6.20;99.90;;;;;;6165226;23;20453;-85
2023/03/05 13:57:35;;;;;;;9.80;6.00;;;6.20;99.90;;;;;;6164927;23;20421;-86
2023/03/05 14:05:20;;;;;;;11.60;7.10;;;6.20;99.90;;;;;;6144755;23;20520;-84
2023/03/05 14:08:04;;;;;;;10.10;5.73;;;6.10;99.90;;;;;;6164745;23;20417;-84
2023/03/05 14:10:39;;;;;;;10.13;6.20;;;6.00;99.90;;;;;;6128497;23;20472;-86
2023/03/05 14:13:30;;;;;;;24.50;7.70;;;5.80;99.90;;;;;;6165752;23;20432;-84
2023/03/05 14:16:13;;;;;;;8.87;5.33;;;5.50;99.90;;;;;;6155189;23;20434;-85
2023/03/05 14:21:46;;;;;;;10.50;6.50;;;5.20;99.90;;;;;;6152998;23;20578;-83
2023/03/05 14:27:36;;;;;;;11.40;6.23;;;5.30;99.90;;;;;;6152804;23;20414;-84
2023/03/05 14:53:43;;;;;;;11.73;9.80;;;5.40;99.90;;;;;;6116267;23;20442;-83
2023/03/05 14:56:19;;;;;;;12.37;11.17;;;5.50;99.90;;;;;;6152162;23;20504;-83
2023/03/05 14:58:53;;;;;;;15.97;14.33;;;5.60;99.90;;;;;;6154026;23;20452;-82
2023/03/05 15:01:34;;;;;;;12.27;10.20;;;5.80;99.90;;;;;;6164529;23;20394;-87
2023/03/05 16:01:24;;;;;;;19.43;10.60;;;5.60;99.90;;;;;;6133542;23;20839;-87
2023/03/05 16:03:51;;;;;;;15.00;10.87;;;5.50;99.90;;;;;;6124455;23;21000;-84
2023/03/05 16:06:21;;;;;;;15.87;10.73;;;5.60;99.90;;;;;;6123617;23;20427;-84
2023/03/05 16:58:17;;;;;;;13.10;10.00;;;5.00;99.90;;;;;;6161726;23;20440;-83
2023/03/05 20:00:26;;;;;;;26.50;24.93;;;4.00;99.90;;;;;;6131373;23;20449;-83
2023/03/05 20:02:53;;;;;;;36.23;34.13;;;4.00;99.90;;;;;;6124054;23;20422;-83
2023/03/05 20:05:24;;;;;;;31.00;28.97;;;4.00;99.90;;;;;;6141719;23;20485;-83
2023/03/05 20:07:51;;;;;;;28.70;26.80;;;3.90;99.90;;;;;;6154032;23;20886;-83
2023/03/05 20:10:19;;;;;;;26.70;25.00;;;4.00;99.90;;;;;;6153780;23;20418;-83
2023/03/05 20:12:46;;;;;;;29.30;27.30;;;4.00;99.90;;;;;;6127637;23;20493;-83
2023/03/05 20:15:14;;;;;;;37.07;34.67;;;4.00;99.90;;;;;;6153906;23;20484;-83
2023/03/05 20:17:45;;;;;;;40.20;37.57;;;3.80;99.90;;;;;;6154065;23;20413;-83
2023/03/05 20:20:13;;;;;;;49.80;47.03;;;3.80;99.90;;;;;;6153354;23;20414;-83
2023/03/05 20:22:42;;;;;;;64.73;61.20;;;3.90;99.90;;;;;;6128147;23;20414;-83
2023/03/05 20:25:15;;;;;;;75.37;72.03;;;4.00;99.90;;;;;;6153892;23;20441;-83
2023/03/05 20:27:42;;;;;;;66.97;63.47;;;3.80;99.90;;;;;;6154076;23;20402;-83
2023/03/05 20:30:13;;;;;;;84.27;80.17;;;3.80;99.90;;;;;;6153843;23;20418;-84
2023/03/05 20:32:42;;;;;;;108.93;103.70;;;3.80;99.90;;;;;;6153581;23;20476;-83
2023/03/05 20:35:14;;;;;;;147.13;141.27;;;4.00;99.90;;;;;;6153876;23;20434;-83
2023/03/05 20:37:48;;;;;;;172.03;164.93;;;3.80;99.90;;;;;;6153705;23;20473;-84
2023/03/05 20:40:16;;;;;;;201.70;194.00;;;3.70;99.90;;;;;;6152941;23;20412;-83
2023/03/05 20:42:44;;;;;;;254.17;244.80;;;3.70;99.90;;;;;;6153739;23;20774;-83
2023/03/05 20:45:14;;;;;;;280.57;270.33;;;3.70;99.90;;;;;;6153462;23;20525;-83
2023/03/05 20:47:45;;;;;;;358.67;346.23;;;3.70;99.90;;;;;;6151944;23;20398;-86
2023/03/05 20:50:13;;;;;;;387.80;373.83;;;3.70;99.90;;;;;;6126750;23;20422;-83
2023/03/05 20:52:43;;;;;;;424.30;408.90;;;3.70;99.90;;;;;;6150475;23;20508;-82
2023/03/05 20:55:13;;;;;;;412.50;397.60;;;3.80;99.90;;;;;;6150806;23;20429;-83
2023/03/05 20:57:45;;;;;;;376.67;363.57;;;3.80;99.90;;;;;;6152855;23;20473;-81
2023/03/05 21:00:13;;;;;;;342.90;330.33;;;3.80;99.90;;;;;;6121557;23;20427;-82
2023/03/05 21:02:40;;;;;;;398.63;384.50;;;3.80;99.90;;;;;;6124008;23;20421;-81
2023/03/05 21:05:12;;;;;;;382.07;367.67;;;3.90;99.90;;;;;;6123406;23;20533;-82
2023/03/05 21:07:40;;;;;;;402.07;387.27;;;3.90;99.90;;;;;;6123255;23;20419;-82
2023/03/05 21:10:08;;;;;;;372.20;358.80;;;3.70;99.90;;;;;;6124044;23;20414;-82
2023/03/05 21:12:34;;;;;;;365.37;351.80;;;3.80;99.90;;;;;;6125078;23;20415;-81
2023/03/05 21:15:01;;;;;;;335.63;323.80;;;3.80;99.90;;;;;;6125386;23;20768;-82
2023/03/05 21:17:28;;;;;;;303.07;291.20;;;3.70;99.90;;;;;;6124962;23;20957;-82
2023/03/05 21:19:56;;;;;;;304.27;293.37;;;3.70;99.90;;;;;;6124915;23;20423;-82
2023/03/05 21:22:24;;;;;;;346.10;334.20;;;3.90;99.90;;;;;;6123516;23;20414;-82
2023/03/05 21:25:00;;;;;;;323.30;312.13;;;3.70;99.90;;;;;;6123310;23;20438;-82
2023/03/05 21:27:27;;;;;;;316.87;305.87;;;3.80;99.90;;;;;;6124348;23;20429;-82
2023/03/05 21:29:55;;;;;;;325.40;314.27;;;3.60;99.90;;;;;;6121515;23;20482;-81
2023/03/05 21:32:23;;;;;;;265.70;255.13;;;3.80;99.90;;;;;;6122954;23;20910;-82
2023/03/05 21:34:50;;;;;;;237.20;227.93;;;3.70;99.90;;;;;;6125289;23;20978;-82
2023/03/05 21:37:17;;;;;;;339.30;327.50;;;3.60;99.90;;;;;;6124912;23;20434;-82
2023/03/05 21:39:45;;;;;;;312.43;301.83;;;3.80;99.90;;;;;;6124345;23;20418;-82
2023/03/05 21:42:12;;;;;;;267.83;258.83;;;3.70;99.90;;;;;;6124011;23;20419;-82
2023/03/05 21:44:39;;;;;;;313.23;302.47;;;3.70;99.90;;;;;;6123356;23;20753;-82
2023/03/05 21:47:07;;;;;;;289.00;279.00;;;3.80;99.90;;;;;;6122916;23;20466;-81
2023/03/05 21:49:34;;;;;;;318.87;308.23;;;3.60;99.90;;;;;;6123161;23;20425;-81
2023/03/05 21:52:07;;;;;;;280.97;271.97;;;3.60;99.90;;;;;;6124252;23;20441;-81
2023/03/05 21:54:35;;;;;;;323.70;313.20;;;3.60;99.90;;;;;;6123239;23;20442;-82
2023/03/05 21:57:03;;;;;;;361.00;349.23;;;3.70;99.90;;;;;;6122485;23;20903;-82
2023/03/05 21:59:30;;;;;;;355.57;343.57;;;3.50;99.90;;;;;;6133261;23;20508;-82
2023/03/05 22:01:57;;;;;;;395.90;383.13;;;3.50;99.90;;;;;;6126813;23;20418;-82
2023/03/05 22:04:24;;;;;;;406.30;392.30;;;3.40;99.90;;;;;;6154473;23;20442;-81
2023/03/05 22:06:51;;;;;;;433.90;418.57;;;3.60;99.90;;;;;;6153326;23;20508;-81
2023/03/05 22:09:18;;;;;;;461.93;446.30;;;3.40;99.90;;;;;;6152155;23;20414;-84
2023/03/05 22:11:45;;;;;;;527.17;507.47;;;3.30;99.90;;;;;;6153034;23;20497;-85
2023/03/05 22:14:14;;;;;;;646.47;620.10;;;3.20;99.90;;;;;;6152459;23;20420;-85
2023/03/05 22:16:43;;;;;;;715.23;681.13;;;3.30;99.90;;;;;;6152545;23;20500;-84
2023/03/05 22:19:10;;;;;;;739.17;701.07;;;3.30;99.90;;;;;;6151851;23;20410;-84
2023/03/05 22:21:37;;;;;;;755.87;714.70;;;3.20;99.90;;;;;;6153079;23;20750;-84
2023/03/05 22:24:04;;;;;;;761.23;718.37;;;3.20;99.90;;;;;;6152175;23;20520;-84
2023/03/05 22:26:35;;;;;;;753.57;712.57;;;3.20;99.90;;;;;;6152881;23;20450;-84
2023/03/05 22:29:02;;;;;;;757.53;715.00;;;3.10;99.90;;;;;;6127148;23;20418;-84
2023/03/05 22:31:31;;;;;;;758.57;716.00;;;3.10;99.90;;;;;;6127279;23;20426;-84
2023/03/05 22:33:58;;;;;;;761.77;719.10;;;3.10;99.90;;;;;;6153690;23;20418;-84
2023/03/05 22:36:25;;;;;;;739.80;701.33;;;3.00;99.90;;;;;;6152557;23;20409;-84
2023/03/05 22:38:52;;;;;;;751.07;709.97;;;3.00;99.90;;;;;;6126594;23;20414;-84
2023/03/05 22:41:20;;;;;;;767.37;723.70;;;3.00;99.90;;;;;;6153433;23;20414;-84
2023/03/05 22:43:49;;;;;;;774.27;728.90;;;3.00;99.90;;;;;;6154186;23;20422;-84
2023/03/05 22:46:18;;;;;;;764.63;720.87;;;2.90;99.90;;;;;;6127869;23;20492;-84
2023/03/05 22:48:47;;;;;;;772.90;727.10;;;3.00;99.90;;;;;;6154319;23;20418;-83
2023/03/05 22:51:16;;;;;;;749.23;708.47;;;3.00;99.90;;;;;;6154865;23;20449;-84
2023/03/05 22:53:44;;;;;;;777.20;729.90;;;3.20;99.90;;;;;;6128080;23;20826;-84
2023/03/05 22:56:13;;;;;;;758.50;711.80;;;3.00;99.90;;;;;;6154629;23;20434;-84
2023/03/05 22:58:49;;;;;;;757.60;710.87;;;3.00;99.90;;;;;;6154131;23;20414;-84
2023/03/05 23:01:19;;;;;;;748.37;703.50;;;3.10;99.90;;;;;;6120810;23;20452;-84
2023/03/05 23:03:53;;;;;;;759.77;709.97;;;3.10;99.90;;;;;;6125108;23;20422;-84
2023/03/05 23:06:21;;;;;;;749.80;704.40;;;3.10;99.90;;;;;;6125191;23;20477;-83
2023/03/05 23:08:48;;;;;;;747.43;701.17;;;3.10;99.90;;;;;;6124309;23;21051;-84
2023/03/05 23:11:15;;;;;;;742.40;696.40;;;3.00;99.90;;;;;;6123214;23;20443;-83
2023/03/05 23:13:42;;;;;;;730.87;686.73;;;3.00;99.90;;;;;;6125194;23;20429;-82
2023/03/05 23:16:12;;;;;;;745.03;698.80;;;3.10;99.90;;;;;;6122963;23;20529;-83
2023/03/05 23:18:39;;;;;;;723.57;681.17;;;3.00;99.90;;;;;;6123341;23;20469;-83
2023/03/05 23:21:07;;;;;;;733.77;688.17;;;3.10;99.90;;;;;;6124642;23;20415;-83
2023/03/05 23:23:36;;;;;;;634.97;602.67;;;3.10;99.90;;;;;;6125034;23;20421;-82
2023/03/05 23:26:03;;;;;;;630.13;599.50;;;3.10;99.90;;;;;;6124837;23;20445;-82
2023/03/05 23:28:31;;;;;;;627.13;596.00;;;2.90;99.90;;;;;;6125270;23;20510;-82
2023/03/05 23:31:02;;;;;;;630.60;600.43;;;2.90;99.90;;;;;;6124552;23;20437;-83
2023/03/05 23:33:29;;;;;;;636.47;604.47;;;2.90;99.90;;;;;;6125125;23;20403;-83
2023/03/05 23:35:58;;;;;;;667.03;629.00;;;2.90;99.90;;;;;;6124928;23;20437;-83
2023/03/05 23:38:28;;;;;;;661.97;624.97;;;2.90;99.90;;;;;;6124460;23;20423;-83
2023/03/05 23:40:59;;;;;;;654.20;619.20;;;2.90;99.90;;;;;;6122890;23;20986;-83
2023/03/05 23:43:26;;;;;;;654.67;619.90;;;2.80;99.90;;;;;;6125193;23;20760;-83
2023/03/05 23:45:54;;;;;;;664.70;627.60;;;2.90;99.90;;;;;;6122763;23;20529;-83
2023/03/05 23:48:22;;;;;;;652.33;615.63;;;2.70;99.90;;;;;;6125019;23;20415;-83
2023/03/05 23:50:51;;;;;;;664.43;625.33;;;2.80;99.90;;;;;;6124870;23;20443;-83
2023/03/05 23:53:19;;;;;;;652.50;616.60;;;2.90;99.90;;;;;;6124053;23;20421;-83
2023/03/05 23:55:48;;;;;;;658.37;621.10;;;2.90;99.90;;;;;;6124278;23;20521;-83
2023/03/05 23:58:16;;;;;;;666.50;628.00;;;2.80;99.90;;;;;;6124229;23;20441;-84
